Cartersville, GA (30121)

4:36 PM EDT on July 29, 2016 (GMT -0400)
Chestnut Ridge | | Change Station

Elev 873 ft 34.24 °N, 84.81 °W | Updated 28 seconds ago

Scattered Clouds
Scattered Clouds
86.0 °F
Feels Like 95 °F
N
0.0
Wind Variable Wind from North
Gusts 3.1 mph

Today
High -- | Low -- °F
--% Chance of Precip.
Yesterday
High -- | Low -- °F
Precip. -- in
Pressure 29.95 in
Visibility 10.0 miles
Clouds Scattered Clouds 10000 ft
Heat Index 95 °F
Dew Point 75 °F
Humidity 69%
Rainfall 0.00 in
Snow Depth Not available.
6:48 AM 8:42 PM
Waning Crescent, 19% visible
METAR KVPC 291953Z AUTO VRB05KT 10SM SCT100 29/23 A2998 RMK AO2 LTG DSNT NE RAB1855E21 SLP140 P0003 T02940233
Pressure 29.95 in
Visibility 10.0 miles
Clouds Scattered Clouds 10000 ft
Heat Index 95 °F
Dew Point 75 °F
Humidity 69%
Rainfall 0.00 in
Snow Depth Not available.
6:48 AM 8:42 PM
Waning Crescent, 19% visible
METAR KVPC 291953Z AUTO VRB05KT 10SM SCT100 29/23 A2998 RMK AO2 LTG DSNT NE RAB1855E21 SLP140 P0003 T02940233

10-Day Weather Forecast

Almanac

Astronomy

Jul. 29, 2016 Rise Set
Actual Time
Civil Twilight
Nautical Twilight
Astronomical Twilight
Moon
Length of Visible Light
Length of Day
Tomorrow will be .
, % of the Moon is Illuminated

Today's Extremes

State Highs State Lows

Community

WunderPhotos

Upload Photos

1,928,407 photos uploaded!

WunderBlog® & News

Nearby

Air Quality

  Air Quality AQ Index Pollutant
Not available.

Snow Depth

Station Depth Elevation

Earthquake Activity

City Distance Mag. Time & Date
Minimum magnitude displayed is 2.5.

Coastal Water Temperatures

Place Temperature

Stations

Nearby Weather Stations

Station Location Temp. Windchill Dew Point Humidity Wind Precip. Elev Updated Type
                   

Watches & Warnings

There are currently no watches in effect.